sensor_id;sensor_type;location;lat;lon;timestamp;P1;durP1;ratioP1;P2;durP2;ratioP2
23952;SDS011;12163;49.316;6.092;2022-07-29T02:30:06;14.35;;;2.40;;
23952;SDS011;12163;49.316;6.092;2022-07-29T02:32:34;3.90;;;2.30;;
23952;SDS011;12163;49.316;6.092;2022-07-29T02:35:05;7.07;;;2.30;;
23952;SDS011;12163;49.316;6.092;2022-07-29T02:37:35;4.53;;;2.45;;
23952;SDS011;12163;49.316;6.092;2022-07-29T02:40:02;3.53;;;2.13;;
23952;SDS011;12163;49.316;6.092;2022-07-29T02:42:32;9.27;;;2.42;;
23952;SDS011;12163;49.316;6.092;2022-07-29T02:45:00;6.90;;;2.25;;
23952;SDS011;12163;49.316;6.092;2022-07-29T02:50:17;4.68;;;2.38;;
23952;SDS011;12163;49.316;6.092;2022-07-29T02:52:52;4.93;;;2.28;;
23952;SDS011;12163;49.316;6.092;2022-07-29T02:55:30;10.70;;;2.67;;
23952;SDS011;12163;49.316;6.092;2022-07-29T02:58:05;6.18;;;2.20;;
23952;SDS011;12163;49.316;6.092;2022-07-29T03:00:48;9.73;;;2.33;;
23952;SDS011;12163;49.316;6.092;2022-07-29T03:03:17;5.07;;;2.47;;
23952;SDS011;12163;49.316;6.092;2022-07-29T03:05:46;8.02;;;2.42;;
23952;SDS011;12163;49.316;6.092;2022-07-29T03:08:13;6.30;;;2.20;;
23952;SDS011;12163;49.316;6.092;2022-07-29T03:10:43;7.40;;;2.25;;
23952;SDS011;12163;49.316;6.092;2022-07-29T03:13:11;12.30;;;2.53;;
23952;SDS011;12163;49.316;6.092;2022-07-29T03:15:39;4.80;;;2.38;;
23952;SDS011;12163;49.316;6.092;2022-07-29T03:18:08;5.35;;;2.30;;
23952;SDS011;12163;49.316;6.092;2022-07-29T03:20:36;5.15;;;2.70;;
23952;SDS011;12163;49.316;6.092;2022-07-29T03:23:04;5.63;;;2.65;;
23952;SDS011;12163;49.316;6.092;2022-07-29T03:25:31;10.63;;;2.45;;
23952;SDS011;12163;49.316;6.092;2022-07-29T03:27:57;9.23;;;2.78;;
23952;SDS011;12163;49.316;6.092;2022-07-29T03:30:24;7.95;;;3.03;;
23952;SDS011;12163;49.316;6.092;2022-07-29T03:32:51;8.10;;;2.70;;
23952;SDS011;12163;49.316;6.092;2022-07-29T03:35:19;6.45;;;2.70;;
23952;SDS011;12163;49.316;6.092;2022-07-29T03:37:46;7.80;;;2.75;;
23952;SDS011;12163;49.316;6.092;2022-07-29T03:40:14;5.45;;;2.38;;
23952;SDS011;12163;49.316;6.092;2022-07-29T03:42:46;3.53;;;2.35;;
23952;SDS011;12163;49.316;6.092;2022-07-29T03:45:15;9.13;;;3.03;;
23952;SDS011;12163;49.316;6.092;2022-07-29T03:47:45;7.47;;;2.70;;
23952;SDS011;12163;49.316;6.092;2022-07-29T03:50:22;7.28;;;3.17;;
23952;SDS011;12163;49.316;6.092;2022-07-29T03:52:49;5.68;;;2.80;;
23952;SDS011;12163;49.316;6.092;2022-07-29T03:55:16;7.15;;;2.83;;
23952;SDS011;12163;49.316;6.092;2022-07-29T03:57:43;7.85;;;2.60;;
23952;SDS011;12163;49.316;6.092;2022-07-29T04:00:10;12.25;;;2.97;;
23952;SDS011;12163;49.316;6.092;2022-07-29T04:02:38;6.40;;;2.67;;
23952;SDS011;12163;49.316;6.092;2022-07-29T04:05:11;6.20;;;2.80;;
23952;SDS011;12163;49.316;6.092;2022-07-29T04:07:39;6.15;;;2.67;;
23952;SDS011;12163;49.316;6.092;2022-07-29T04:10:06;8.40;;;2.90;;
23952;SDS011;12163;49.316;6.092;2022-07-29T04:12:34;8.95;;;2.80;;
23952;SDS011;12163;49.316;6.092;2022-07-29T04:15:02;6.85;;;3.20;;
23952;SDS011;12163;49.316;6.092;2022-07-29T04:17:30;10.27;;;2.90;;
23952;SDS011;12163;49.316;6.092;2022-07-29T04:19:56;7.65;;;2.78;;
23952;SDS011;12163;49.316;6.092;2022-07-29T04:22:23;8.40;;;2.45;;
23952;SDS011;12163;49.316;6.092;2022-07-29T04:24:51;9.40;;;2.47;;
23952;SDS011;12163;49.316;6.092;2022-07-29T04:27:17;8.10;;;2.72;;
23952;SDS011;12163;49.316;6.092;2022-07-29T04:29:46;6.82;;;2.67;;
23952;SDS011;12163;49.316;6.092;2022-07-29T04:32:22;5.43;;;2.90;;
23952;SDS011;12163;49.316;6.092;2022-07-29T04:34:48;10.38;;;3.00;;
23952;SDS011;12163;49.316;6.092;2022-07-29T04:37:15;6.95;;;2.75;;
23952;SDS011;12163;49.316;6.092;2022-07-29T04:39:42;8.50;;;3.10;;
23952;SDS011;12163;49.316;6.092;2022-07-29T18:12:51;4.72;;;1.52;;
23952;SDS011;12163;49.316;6.092;2022-07-29T18:15:17;4.18;;;1.50;;
23952;SDS011;12163;49.316;6.092;2022-07-29T18:17:44;5.22;;;1.60;;
23952;SDS011;12163;49.316;6.092;2022-07-29T18:20:23;6.20;;;1.73;;
23952;SDS011;12163;49.316;6.092;2022-07-29T18:22:50;3.50;;;1.60;;
23952;SDS011;12163;49.316;6.092;2022-07-29T18:25:17;3.25;;;1.67;;
23952;SDS011;12163;49.316;6.092;2022-07-29T18:27:44;6.13;;;2.15;;
23952;SDS011;12163;49.316;6.092;2022-07-29T18:30:11;5.03;;;1.67;;
23952;SDS011;12163;49.316;6.092;2022-07-29T18:32:40;5.22;;;1.83;;
23952;SDS011;12163;49.316;6.092;2022-07-29T18:35:27;3.15;;;1.38;;
23952;SDS011;12163;49.316;6.092;2022-07-29T18:37:53;5.72;;;1.65;;
23952;SDS011;12163;49.316;6.092;2022-07-29T18:40:27;3.67;;;1.52;;
23952;SDS011;12163;49.316;6.092;2022-07-29T18:42:54;3.70;;;1.60;;
23952;SDS011;12163;49.316;6.092;2022-07-29T18:45:21;5.35;;;1.42;;
23952;SDS011;12163;49.316;6.092;2022-07-29T18:47:53;2.92;;;1.48;;
23952;SDS011;12163;49.316;6.092;2022-07-29T18:50:21;2.58;;;1.38;;
23952;SDS011;12163;49.316;6.092;2022-07-29T18:52:54;6.43;;;1.80;;
23952;SDS011;12163;49.316;6.092;2022-07-29T18:55:24;7.55;;;1.60;;
23952;SDS011;12163;49.316;6.092;2022-07-29T18:57:51;5.78;;;1.60;;
23952;SDS011;12163;49.316;6.092;2022-07-29T19:00:22;4.18;;;1.80;;
23952;SDS011;12163;49.316;6.092;2022-07-29T19:02:49;5.18;;;1.63;;
23952;SDS011;12163;49.316;6.092;2022-07-29T19:05:17;6.00;;;1.85;;
23952;SDS011;12163;49.316;6.092;2022-07-29T19:07:43;3.30;;;1.30;;
23952;SDS011;12163;49.316;6.092;2022-07-29T19:10:10;2.50;;;1.50;;
23952;SDS011;12163;49.316;6.092;2022-07-29T19:12:37;4.95;;;1.60;;
23952;SDS011;12163;49.316;6.092;2022-07-29T19:15:04;5.13;;;1.60;;
23952;SDS011;12163;49.316;6.092;2022-07-29T19:17:32;10.05;;;1.48;;
23952;SDS011;12163;49.316;6.092;2022-07-29T19:19:59;3.20;;;1.42;;
23952;SDS011;12163;49.316;6.092;2022-07-29T19:22:25;5.63;;;1.58;;
23952;SDS011;12163;49.316;6.092;2022-07-29T19:24:52;7.95;;;1.70;;
23952;SDS011;12163;49.316;6.092;2022-07-29T19:27:19;8.00;;;1.52;;
23952;SDS011;12163;49.316;6.092;2022-07-29T19:29:46;5.68;;;1.70;;
23952;SDS011;12163;49.316;6.092;2022-07-29T19:32:12;9.50;;;1.90;;
23952;SDS011;12163;49.316;6.092;2022-07-29T19:34:50;4.05;;;1.50;;
23952;SDS011;12163;49.316;6.092;2022-07-29T19:37:35;10.80;;;1.92;;
23952;SDS011;12163;49.316;6.092;2022-07-29T19:40:03;3.58;;;1.65;;
23952;SDS011;12163;49.316;6.092;2022-07-29T19:42:30;9.15;;;1.55;;
23952;SDS011;12163;49.316;6.092;2022-07-29T19:44:57;7.70;;;1.83;;
23952;SDS011;12163;49.316;6.092;2022-07-29T19:47:23;7.80;;;1.70;;
23952;SDS011;12163;49.316;6.092;2022-07-29T19:49:50;3.70;;;1.95;;
23952;SDS011;12163;49.316;6.092;2022-07-29T19:52:16;7.85;;;1.75;;
23952;SDS011;12163;49.316;6.092;2022-07-29T19:54:43;3.13;;;1.80;;
23952;SDS011;12163;49.316;6.092;2022-07-29T19:57:10;6.60;;;1.83;;
23952;SDS011;12163;49.316;6.092;2022-07-29T19:59:37;5.35;;;1.98;;
23952;SDS011;12163;49.316;6.092;2022-07-29T20:02:03;5.22;;;2.00;;
23952;SDS011;12163;49.316;6.092;2022-07-29T20:04:31;4.40;;;1.65;;
23952;SDS011;12163;49.316;6.092;2022-07-29T20:06:58;3.08;;;1.77;;
23952;SDS011;12163;49.316;6.092;2022-07-29T20:09:27;5.63;;;1.80;;
23952;SDS011;12163;49.316;6.092;2022-07-29T20:11:54;5.50;;;1.55;;
23952;SDS011;12163;49.316;6.092;2022-07-29T20:14:20;4.43;;;1.67;;
23952;SDS011;12163;49.316;6.092;2022-07-29T20:16:48;8.75;;;2.45;;
23952;SDS011;12163;49.316;6.092;2022-07-29T20:19:15;7.38;;;1.85;;
23952;SDS011;12163;49.316;6.092;2022-07-29T20:21:42;5.78;;;1.42;;
23952;SDS011;12163;49.316;6.092;2022-07-29T20:24:09;7.45;;;2.05;;
23952;SDS011;12163;49.316;6.092;2022-07-29T20:26:36;6.22;;;1.70;;
23952;SDS011;12163;49.316;6.092;2022-07-29T20:29:03;5.68;;;2.08;;
23952;SDS011;12163;49.316;6.092;2022-07-29T20:31:30;3.97;;;1.85;;
23952;SDS011;12163;49.316;6.092;2022-07-29T20:33:58;3.97;;;1.88;;
23952;SDS011;12163;49.316;6.092;2022-07-29T20:36:26;4.53;;;1.85;;
23952;SDS011;12163;49.316;6.092;2022-07-29T20:38:53;10.35;;;2.20;;
23952;SDS011;12163;49.316;6.092;2022-07-29T20:41:20;7.53;;;1.90;;
23952;SDS011;12163;49.316;6.092;2022-07-29T20:43:47;5.63;;;2.05;;
23952;SDS011;12163;49.316;6.092;2022-07-29T20:46:17;7.18;;;1.80;;
23952;SDS011;12163;49.316;6.092;2022-07-29T20:48:44;7.55;;;1.98;;
23952;SDS011;12163;49.316;6.092;2022-07-29T20:51:12;6.15;;;1.77;;
23952;SDS011;12163;49.316;6.092;2022-07-29T20:53:39;5.22;;;2.10;;
23952;SDS011;12163;49.316;6.092;2022-07-29T20:56:06;3.97;;;1.73;;
23952;SDS011;12163;49.316;6.092;2022-07-29T20:58:33;10.02;;;1.80;;
23952;SDS011;12163;49.316;6.092;2022-07-29T21:01:02;7.22;;;1.73;;
23952;SDS011;12163;49.316;6.092;2022-07-29T21:03:29;2.78;;;1.80;;
23952;SDS011;12163;49.316;6.092;2022-07-29T21:05:56;3.20;;;1.60;;
23952;SDS011;12163;49.316;6.092;2022-07-29T21:08:22;4.85;;;1.92;;
23952;SDS011;12163;49.316;6.092;2022-07-29T21:10:49;5.70;;;1.90;;
23952;SDS011;12163;49.316;6.092;2022-07-29T21:13:16;7.22;;;2.05;;
23952;SDS011;12163;49.316;6.092;2022-07-29T21:15:43;4.53;;;1.83;;
23952;SDS011;12163;49.316;6.092;2022-07-29T21:18:14;7.45;;;1.77;;
23952;SDS011;12163;49.316;6.092;2022-07-29T21:20:53;7.00;;;2.05;;
23952;SDS011;12163;49.316;6.092;2022-07-29T21:23:20;6.05;;;1.77;;
23952;SDS011;12163;49.316;6.092;2022-07-29T21:25:47;3.45;;;1.90;;
23952;SDS011;12163;49.316;6.092;2022-07-29T21:28:13;4.20;;;1.83;;
23952;SDS011;12163;49.316;6.092;2022-07-29T21:30:53;6.13;;;1.65;;
23952;SDS011;12163;49.316;6.092;2022-07-29T21:33:25;6.68;;;2.17;;
23952;SDS011;12163;49.316;6.092;2022-07-29T21:35:53;3.17;;;1.52;;
23952;SDS011;12163;49.316;6.092;2022-07-29T21:38:40;8.95;;;1.92;;
23952;SDS011;12163;49.316;6.092;2022-07-29T21:41:06;8.50;;;1.85;;
23952;SDS011;12163;49.316;6.092;2022-07-29T21:43:33;10.57;;;1.90;;
23952;SDS011;12163;49.316;6.092;2022-07-29T21:46:00;5.35;;;1.70;;
23952;SDS011;12163;49.316;6.092;2022-07-29T21:48:27;6.38;;;2.33;;
23952;SDS011;12163;49.316;6.092;2022-07-29T21:50:54;4.97;;;1.80;;
23952;SDS011;12163;49.316;6.092;2022-07-29T21:53:20;8.88;;;1.90;;
23952;SDS011;12163;49.316;6.092;2022-07-29T21:55:50;5.82;;;1.85;;
23952;SDS011;12163;49.316;6.092;2022-07-29T21:58:19;6.70;;;1.88;;
23952;SDS011;12163;49.316;6.092;2022-07-29T22:00:47;5.07;;;1.70;;
23952;SDS011;12163;49.316;6.092;2022-07-29T22:03:14;5.07;;;1.55;;
23952;SDS011;12163;49.316;6.092;2022-07-29T22:05:41;3.70;;;1.70;;
23952;SDS011;12163;49.316;6.092;2022-07-29T22:08:07;5.18;;;2.00;;
23952;SDS011;12163;49.316;6.092;2022-07-29T22:10:34;5.28;;;1.90;;
23952;SDS011;12163;49.316;6.092;2022-07-29T22:13:01;8.63;;;1.95;;
23952;SDS011;12163;49.316;6.092;2022-07-29T22:15:28;5.25;;;1.70;;
23952;SDS011;12163;49.316;6.092;2022-07-29T22:17:55;3.38;;;1.85;;
23952;SDS011;12163;49.316;6.092;2022-07-29T22:20:23;6.32;;;1.60;;
23952;SDS011;12163;49.316;6.092;2022-07-29T22:22:50;7.60;;;1.80;;
23952;SDS011;12163;49.316;6.092;2022-07-29T22:25:16;4.65;;;1.80;;
23952;SDS011;12163;49.316;6.092;2022-07-29T22:27:43;4.78;;;1.65;;
23952;SDS011;12163;49.316;6.092;2022-07-29T22:30:10;5.38;;;1.77;;
23952;SDS011;12163;49.316;6.092;2022-07-29T22:32:37;4.57;;;1.88;;
23952;SDS011;12163;49.316;6.092;2022-07-29T22:35:04;5.68;;;2.10;;
23952;SDS011;12163;49.316;6.092;2022-07-29T22:37:31;6.97;;;1.77;;
23952;SDS011;12163;49.316;6.092;2022-07-29T22:39:58;8.00;;;1.88;;
23952;SDS011;12163;49.316;6.092;2022-07-29T22:42:25;8.52;;;2.00;;
23952;SDS011;12163;49.316;6.092;2022-07-29T22:44:51;6.50;;;2.00;;
23952;SDS011;12163;49.316;6.092;2022-07-29T22:47:18;8.10;;;1.90;;
23952;SDS011;12163;49.316;6.092;2022-07-29T22:50:04;4.50;;;1.85;;
23952;SDS011;12163;49.316;6.092;2022-07-29T22:52:31;5.53;;;2.00;;
23952;SDS011;12163;49.316;6.092;2022-07-29T22:54:58;9.00;;;1.98;;
23952;SDS011;12163;49.316;6.092;2022-07-29T22:57:24;5.60;;;2.03;;
23952;SDS011;12163;49.316;6.092;2022-07-29T22:59:51;5.05;;;1.95;;
23952;SDS011;12163;49.316;6.092;2022-07-29T23:02:18;5.55;;;1.80;;
23952;SDS011;12163;49.316;6.092;2022-07-29T23:04:44;5.00;;;1.90;;
23952;SDS011;12163;49.316;6.092;2022-07-29T23:07:11;5.68;;;1.85;;
23952;SDS011;12163;49.316;6.092;2022-07-29T23:09:37;3.55;;;1.92;;
23952;SDS011;12163;49.316;6.092;2022-07-29T23:12:04;9.68;;;1.98;;
23952;SDS011;12163;49.316;6.092;2022-07-29T23:14:31;8.63;;;2.25;;
23952;SDS011;12163;49.316;6.092;2022-07-29T23:16:57;7.22;;;2.05;;
23952;SDS011;12163;49.316;6.092;2022-07-29T23:19:24;5.32;;;2.08;;
23952;SDS011;12163;49.316;6.092;2022-07-29T23:21:51;8.98;;;2.20;;
23952;SDS011;12163;49.316;6.092;2022-07-29T23:24:17;3.58;;;1.90;;
23952;SDS011;12163;49.316;6.092;2022-07-29T23:26:44;7.70;;;1.98;;
23952;SDS011;12163;49.316;6.092;2022-07-29T23:29:11;6.13;;;2.72;;
23952;SDS011;12163;49.316;6.092;2022-07-29T23:31:37;6.82;;;2.17;;
23952;SDS011;12163;49.316;6.092;2022-07-29T23:34:09;4.47;;;1.85;;
23952;SDS011;12163;49.316;6.092;2022-07-29T23:36:35;5.80;;;1.95;;
23952;SDS011;12163;49.316;6.092;2022-07-29T23:39:02;4.95;;;2.05;;
23952;SDS011;12163;49.316;6.092;2022-07-29T23:41:29;6.07;;;1.60;;
23952;SDS011;12163;49.316;6.092;2022-07-29T23:43:56;7.25;;;2.00;;
23952;SDS011;12163;49.316;6.092;2022-07-29T23:46:23;5.47;;;1.95;;
23952;SDS011;12163;49.316;6.092;2022-07-29T23:48:49;3.30;;;2.10;;
23952;SDS011;12163;49.316;6.092;2022-07-29T23:51:16;5.82;;;2.10;;
23952;SDS011;12163;49.316;6.092;2022-07-29T23:53:43;4.55;;;2.17;;
23952;SDS011;12163;49.316;6.092;2022-07-29T23:56:19;5.15;;;2.28;;
23952;SDS011;12163;49.316;6.092;2022-07-29T23:58:46;4.32;;;1.90;;
